Time;durP1;ratioP1;P1;durP2;ratioP2;P2;SDS_P1;SDS_P2;PMS_P1;PMS_P2;Temp;Humidity;BMP_temperature;BMP_pressure;BME280_temperature;BME280_humidity;BME280_pressure;Samples;Min_cycle;Max_cycle;Signal;HPM_P1;HPM_P2
2023/03/22 00:02:24;;;;;;;4.33;3.50;;;;;;;9.10;100.00;98009.94;5050675;28;20225;-76
2023/03/22 00:04:51;;;;;;;4.67;3.70;;;;;;;9.10;100.00;98009.94;5050999;28;20298;-76
2023/03/22 00:07:17;;;;;;;4.07;3.67;;;;;;;9.00;100.00;98014.97;5050702;28;20206;-76
2023/03/22 00:09:44;;;;;;;4.50;3.57;;;;;;;9.01;100.00;98018.44;5050154;28;20235;-75
2023/03/22 00:12:10;;;;;;;4.53;4.03;;;;;;;8.98;100.00;98011.59;5050634;28;20666;-77
2023/03/22 00:14:37;;;;;;;4.80;3.83;;;;;;;8.96;100.00;98002.94;5050660;28;20845;-76
2023/03/22 00:17:05;;;;;;;3.63;3.30;;;;;;;9.01;100.00;98005.28;5050930;28;20217;-76
2023/03/22 00:19:32;;;;;;;5.70;3.80;;;;;;;9.05;100.00;98007.59;5050281;28;20220;-76
2023/03/22 00:21:59;;;;;;;3.73;3.20;;;;;;;9.10;100.00;97994.13;5050574;28;20264;-76
2023/03/22 00:24:26;;;;;;;4.53;3.43;;;;;;;9.11;100.00;97995.84;5050375;28;20207;-76
2023/03/22 00:26:52;;;;;;;3.60;3.30;;;;;;;9.15;100.00;97998.16;5050708;28;20209;-76
2023/03/22 00:29:21;;;;;;;4.07;3.03;;;;;;;9.19;100.00;97988.25;5050289;28;20251;-76
2023/03/22 00:31:48;;;;;;;4.77;4.00;;;;;;;9.23;100.00;97984.47;5050857;28;20305;-76
2023/03/22 00:34:16;;;;;;;4.13;3.40;;;;;;;9.25;100.00;97985.22;5050479;28;20699;-76
2023/03/22 00:36:43;;;;;;;7.10;3.90;;;;;;;9.23;100.00;97984.47;5050496;28;20222;-76
2023/03/22 00:39:09;;;;;;;5.10;3.80;;;;;;;9.25;100.00;97988.69;5050019;28;20243;-76
2023/03/22 00:41:36;;;;;;;5.17;3.70;;;;;;;9.28;100.00;97998.19;5050435;28;20210;-76
2023/03/22 00:44:02;;;;;;;4.63;4.17;;;;;;;9.26;100.00;97989.53;5050890;28;20208;-77
2023/03/22 00:46:29;;;;;;;5.13;4.00;;;;;;;9.22;100.00;97990.66;5054370;28;20219;-77
2023/03/22 00:48:56;;;;;;;5.20;4.03;;;;;;;9.19;100.00;97983.81;5054122;28;20243;-77
2023/03/22 00:51:24;;;;;;;5.67;4.03;;;;;;;9.15;100.00;97981.47;5054151;28;20311;-77
2023/03/22 00:53:52;;;;;;;4.90;3.97;;;;;;;9.10;100.00;97978.28;5054071;28;20215;-76
2023/03/22 00:56:21;;;;;;;6.17;4.40;;;;;;;9.11;100.00;97974.75;5054229;28;20626;-76
2023/03/22 00:58:48;;;;;;;6.13;4.50;;;;;;;9.08;100.00;97972.28;5054057;28;20227;-76
2023/03/22 01:01:14;;;;;;;7.30;4.10;;;;;;;9.14;100.00;97969.25;5053983;28;20226;-76
2023/03/22 01:03:42;;;;;;;5.33;3.60;;;;;;;9.19;100.00;97967.16;5053981;28;20698;-78
2023/03/22 01:06:09;;;;;;;6.13;4.00;;;;;;;9.21;100.00;97970.53;5053760;28;20698;-77
2023/03/22 01:08:37;;;;;;;5.33;3.70;;;;;;;9.24;100.00;97970.34;5053857;28;20239;-77
2023/03/22 01:11:05;;;;;;;4.87;3.53;;;;;;;9.34;100.00;97966.13;5053650;28;20662;-77
2023/03/22 01:13:31;;;;;;;5.93;3.50;;;;;;;9.35;100.00;97962.53;5053699;28;20215;-76
2023/03/22 01:15:58;;;;;;;4.00;3.53;;;;;;;9.31;100.00;97958.44;5053798;28;20207;-76
2023/03/22 01:18:24;;;;;;;5.13;3.60;;;;;;;9.20;100.00;97953.88;5053617;28;20220;-76
2023/03/22 01:20:51;;;;;;;5.33;3.60;;;;;;;9.11;100.00;97953.66;5053294;28;20218;-77
2023/03/22 01:23:17;;;;;;;5.13;3.87;;;;;;;9.01;100.00;97952.56;5053915;28;20215;-78
2023/03/22 01:25:45;;;;;;;4.90;3.87;;;;;;;8.94;100.00;97953.91;5053661;28;20208;-76
2023/03/22 01:28:12;;;;;;;4.97;3.40;;;;;;;8.84;100.00;97948.38;5053511;28;20278;-78
2023/03/22 01:30:39;;;;;;;4.90;3.20;;;;;;;8.74;100.00;97941.16;5052998;28;20241;-77
2023/03/22 01:33:06;;;;;;;4.50;3.73;;;;;;;8.72;100.00;97943.06;5053250;28;20288;-77
2023/03/22 01:35:33;;;;;;;5.80;4.10;;;;;;;8.72;100.00;97943.06;5053540;28;20211;-77
2023/03/22 01:37:59;;;;;;;5.43;4.20;;;;;;;8.72;100.00;97941.28;5053367;28;20308;-77
2023/03/22 01:40:26;;;;;;;6.07;4.50;;;;;;;8.74;100.00;97938.53;5052924;28;20211;-77
2023/03/22 01:42:55;;;;;;;7.70;4.83;;;;;;;8.81;100.00;97934.56;5053199;28;20206;-77
2023/03/22 01:45:40;;;;;;;6.13;4.43;;;;;;;8.75;100.00;97925.25;5053263;28;20215;-77
2023/03/22 01:48:12;;;;;;;7.10;4.53;;;;;;;8.64;100.00;97937.44;5052952;28;20213;-77
2023/03/22 01:50:42;;;;;;;5.33;4.40;;;;;;;8.51;100.00;97928.66;5052822;28;20235;-77
2023/03/22 01:53:13;;;;;;;6.63;4.30;;;;;;;8.38;100.00;97927.75;5053168;28;20211;-76
2023/03/22 01:55:40;;;;;;;6.20;4.30;;;;;;;8.25;100.00;97921.53;5052834;28;20273;-76
2023/03/22 01:58:08;;;;;;;7.40;4.83;;;;;;;8.13;100.00;97931.03;5052787;28;20223;-76
2023/03/22 02:00:35;;;;;;;6.97;4.70;;;;;;;8.07;100.00;97935.81;5052656;28;20222;-76
2023/03/22 02:03:02;;;;;;;7.43;4.47;;;;;;;7.98;100.00;97934.63;5053060;28;20245;-76
2023/03/22 02:05:29;;;;;;;7.30;5.23;;;;;;;7.90;100.00;97928.97;5052922;28;20558;-76
2023/03/22 02:07:56;;;;;;;8.13;5.63;;;;;;;7.84;100.00;97929.34;5052849;28;20209;-76
2023/03/22 02:10:25;;;;;;;7.80;5.60;;;;;;;7.78;100.00;97928.91;5052238;28;20241;-76
2023/03/22 02:13:02;;;;;;;7.70;5.60;;;;;;;7.70;100.00;97917.97;5052550;28;20214;-76
2023/03/22 02:15:34;;;;;;;7.60;6.10;;;;;;;7.59;100.00;97917.81;5052785;28;20223;-76
2023/03/22 02:18:18;;;;;;;8.53;6.00;;;;;;;7.49;100.00;97924.56;5052721;28;20216;-76
2023/03/22 02:21:18;;;;;;;7.43;5.80;;;;;;;7.37;100.00;97922.66;5052193;28;20211;-76
2023/03/22 02:24:06;;;;;;;7.77;6.43;;;;;;;7.28;100.00;97920.59;5052505;28;20214;-77
2023/03/22 02:27:15;;;;;;;8.53;6.30;;;;;;;7.26;100.00;97908.47;5052592;28;20605;-77
2023/03/22 02:29:44;;;;;;;7.23;6.03;;;;;;;7.32;100.00;97908.94;5045731;28;20274;-77
2023/03/22 02:32:36;;;;;;;9.17;6.03;;;;;;;7.28;100.00;97901.34;5052446;28;20211;-77
2023/03/22 02:35:31;;;;;;;9.97;5.90;;;;;;;7.24;100.00;97905.94;5031834;28;20222;-76
2023/03/22 02:38:35;;;;;;;8.90;6.10;;;;;;;7.20;100.00;97904.41;5031355;28;20213;-79
2023/03/22 02:41:11;;;;;;;6.23;5.40;;;;;;;7.18;100.00;97901.03;5051944;28;20215;-77
2023/03/22 02:43:45;;;;;;;7.70;6.27;;;;;;;7.20;100.00;97903.59;5051983;28;20223;-77
2023/03/22 02:46:19;;;;;;;8.07;6.13;;;;;;;7.18;100.00;97906.28;5051855;28;20577;-77
2023/03/22 02:48:53;;;;;;;7.93;6.20;;;;;;;7.19;100.00;97902.72;5052044;28;20234;-77
2023/03/22 02:51:24;;;;;;;9.83;6.30;;;;;;;7.18;100.00;97914.19;5052054;28;20590;-76
2023/03/22 02:53:54;;;;;;;9.47;5.83;;;;;;;7.18;100.00;97908.06;5051976;28;20221;-77
2023/03/22 02:56:27;;;;;;;8.73;5.60;;;;;;;7.19;100.00;97907.97;5052055;28;20250;-77
2023/03/22 02:58:56;;;;;;;11.13;5.90;;;;;;;7.20;100.00;97899.16;5052146;28;20246;-77
2023/03/22 03:01:26;;;;;;;9.10;5.83;;;;;;;7.21;100.00;97898.22;5051341;28;20215;-77
2023/03/22 03:03:58;;;;;;;8.10;5.63;;;;;;;7.22;100.00;97903.38;5052063;28;20203;-76
2023/03/22 03:06:28;;;;;;;6.73;5.30;;;;;;;7.20;100.00;97893.91;5051508;28;20213;-77
2023/03/22 03:08:56;;;;;;;6.97;4.50;;;;;;;7.23;100.00;97899.00;5051296;28;20247;-77
2023/03/22 03:11:24;;;;;;;5.67;4.97;;;;;;;7.26;100.00;97895.34;5051088;28;20241;-77
2023/03/22 03:13:51;;;;;;;5.40;4.50;;;;;;;7.23;100.00;97902.44;5051611;28;20211;-77
2023/03/22 03:16:21;;;;;;;4.70;4.00;;;;;;;7.25;100.00;97894.47;5051316;28;20221;-77
2023/03/22 03:18:52;;;;;;;5.70;4.30;;;;;;;7.27;100.00;97895.22;5051188;28;20238;-77
2023/03/22 03:21:31;;;;;;;5.43;4.30;;;;;;;7.24;100.00;97900.69;5051154;28;20210;-77
2023/03/22 03:24:11;;;;;;;4.73;3.90;;;;;;;7.24;100.00;97903.31;5051237;28;20210;-77
2023/03/22 03:26:47;;;;;;;4.73;3.97;;;;;;;7.22;100.00;97902.56;5051385;28;20214;-75
2023/03/22 03:29:21;;;;;;;6.70;4.13;;;;;;;7.22;100.00;97904.34;5050689;28;20242;-76
2023/03/22 03:31:52;;;;;;;4.70;3.83;;;;;;;7.21;100.00;97908.72;5051076;28;20218;-76
2023/03/22 03:34:24;;;;;;;4.60;3.83;;;;;;;7.27;100.00;97905.72;5051368;28;20574;-76
2023/03/22 03:36:59;;;;;;;4.20;3.40;;;;;;;7.18;100.00;97906.28;5051158;28;20211;-77
2023/03/22 03:39:29;;;;;;;4.13;3.50;;;;;;;7.20;100.00;97909.66;5050817;28;20626;-75
2023/03/22 03:41:58;;;;;;;5.07;3.50;;;;;;;7.17;100.00;97907.25;5051193;28;20588;-78
2023/03/22 03:44:25;;;;;;;4.30;3.37;;;;;;;7.18;100.00;97910.69;5050956;28;20221;-75
2023/03/22 03:46:53;;;;;;;4.47;3.50;;;;;;;7.14;100.00;97909.22;5050839;28;20681;-75
2023/03/22 03:49:23;;;;;;;3.83;3.20;;;;;;;7.08;100.00;97912.19;5050613;28;20597;-76
2023/03/22 03:51:51;;;;;;;5.07;3.43;;;;;;;7.09;100.00;97912.06;5050908;28;20680;-77
2023/03/22 03:54:18;;;;;;;5.60;3.50;;;;;;;7.06;100.00;97906.16;5050904;28;20208;-78
2023/03/22 03:56:46;;;;;;;4.17;3.50;;;;;;;7.06;100.00;97907.00;5050927;28;20591;-76
2023/03/22 03:59:15;;;;;;;4.53;3.67;;;;;;;7.06;100.00;97906.16;5050326;28;20228;-76
2023/03/22 04:01:49;;;;;;;3.30;3.00;;;;;;;7.03;100.00;97909.81;5050988;28;20669;-76
2023/03/22 04:04:16;;;;;;;4.50;3.40;;;;;;;7.00;100.00;97912.63;5051018;28;20263;-76
2023/03/22 04:06:43;;;;;;;3.80;3.40;;;;;;;6.92;100.00;97912.25;5050876;28;20224;-76
2023/03/22 04:09:10;;;;;;;4.73;3.37;;;;;;;6.90;100.00;97916.72;5050643;28;20258;-76
2023/03/22 04:11:37;;;;;;;3.97;3.43;;;;;;;6.91;100.00;97912.31;5050502;28;20274;-78
2023/03/22 04:14:03;;;;;;;4.77;3.27;;;;;;;6.88;100.00;97913.34;5050930;28;20220;-76
2023/03/22 04:16:31;;;;;;;4.40;3.20;;;;;;;6.86;100.00;97914.38;5050948;28;20235;-76
2023/03/22 04:18:58;;;;;;;4.23;3.70;;;;;;;6.78;100.00;97909.53;5051498;28;20598;-76
2023/03/22 04:21:24;;;;;;;4.13;3.33;;;;;;;6.73;100.00;97906.34;5054695;28;20596;-76
2023/03/22 04:23:51;;;;;;;4.23;3.20;;;;;;;6.67;100.00;97909.34;5054518;28;20212;-76
2023/03/22 04:26:17;;;;;;;4.53;3.90;;;;;;;6.60;100.00;97897.47;5054549;28;20242;-76
2023/03/22 04:28:43;;;;;;;4.70;4.00;;;;;;;6.60;100.00;97902.72;5054263;28;20234;-76
2023/03/22 04:31:10;;;;;;;6.30;3.87;;;;;;;6.55;100.00;97896.91;5054333;28;20230;-75
2023/03/22 04:33:39;;;;;;;5.10;4.47;;;;;;;6.47;100.00;97893.84;5054591;28;20239;-77
2023/03/22 04:36:09;;;;;;;5.67;4.10;;;;;;;6.45;100.00;97887.84;5054560;28;20533;-75
2023/03/22 04:38:38;;;;;;;6.13;5.00;;;;;;;6.46;100.00;97894.78;5054236;28;20236;-76
2023/03/22 04:41:05;;;;;;;6.60;5.07;;;;;;;6.38;100.00;97886.50;5054416;28;20205;-76
2023/03/22 04:43:33;;;;;;;7.30;5.90;;;;;;;6.37;100.00;97878.72;5054567;28;20273;-75
2023/03/22 04:46:00;;;;;;;8.77;5.70;;;;;;;6.38;100.00;97883.03;5054487;28;20205;-76
2023/03/22 04:48:28;;;;;;;10.80;7.77;;;;;;;6.36;100.00;97880.47;5054286;28;20270;-76
2023/03/22 04:50:56;;;;;;;9.50;7.10;;;;;;;6.35;100.00;97878.78;5054166;28;20577;-76
2023/03/22 04:53:26;;;;;;;10.53;7.90;;;;;;;6.37;100.00;97873.47;5054510;28;20211;-77
2023/03/22 04:55:55;;;;;;;10.80;7.40;;;;;;;6.35;100.00;97875.34;5054414;28;20300;-77
2023/03/22 04:58:22;;;;;;;8.93;7.13;;;;;;;6.30;100.00;97870.31;5054124;28;20241;-77
2023/03/22 05:00:51;;;;;;;9.63;7.07;;;;;;;6.18;100.00;97867.56;5053714;28;20765;-76
2023/03/22 05:03:19;;;;;;;8.67;6.80;;;;;;;6.12;100.00;97863.47;5053987;28;20206;-77
2023/03/22 05:05:51;;;;;;;9.10;6.73;;;;;;;6.03;100.00;97864.00;5053894;28;20223;-77
2023/03/22 05:08:19;;;;;;;10.80;7.77;;;;;;;5.94;100.00;97856.66;5053865;28;20217;-77
2023/03/22 05:10:46;;;;;;;11.03;7.37;;;;;;;5.91;100.00;97859.44;5053566;28;20269;-77
2023/03/22 05:13:13;;;;;;;8.13;6.87;;;;;;;5.93;100.00;97854.13;5053938;28;20213;-77
2023/03/22 05:15:40;;;;;;;11.10;7.83;;;;;;;5.96;100.00;97857.41;5053854;28;20569;-77
2023/03/22 05:18:07;;;;;;;11.20;7.20;;;;;;;6.06;100.00;97856.00;5053677;28;20209;-76
2023/03/22 05:20:33;;;;;;;8.07;6.73;;;;;;;6.11;100.00;97861.81;5053578;28;20206;-77
2023/03/22 05:23:01;;;;;;;10.70;7.20;;;;;;;6.20;100.00;97856.06;5053926;28;20209;-77
2023/03/22 05:25:29;;;;;;;10.30;7.47;;;;;;;6.30;100.00;97859.84;5053838;28;20205;-77
2023/03/22 05:28:00;;;;;;;9.50;7.50;;;;;;;6.35;100.00;97865.66;5053621;28;20584;-76
2023/03/22 05:30:27;;;;;;;9.93;6.77;;;;;;;6.44;100.00;97859.91;5066739;22;20236;-75
2023/03/22 05:32:58;;;;;;;9.17;6.57;;;;;;;6.49;100.00;97860.50;5053785;28;20289;-76
2023/03/22 05:35:25;;;;;;;10.90;7.73;;;;;;;6.53;100.00;97862.00;5053993;28;20256;-76
2023/03/22 05:37:51;;;;;;;8.43;6.83;;;;;;;6.56;100.00;97864.47;5057129;28;20210;-76
2023/03/22 05:40:18;;;;;;;7.43;6.10;;;;;;;6.50;100.00;97859.56;5059115;28;20240;-77
2023/03/22 05:42:46;;;;;;;9.07;6.53;;;;;;;6.57;100.00;97867.91;5060911;28;20211;-76
2023/03/22 05:45:12;;;;;;;8.07;6.17;;;;;;;6.58;100.00;97862.59;5053693;28;20213;-76
2023/03/22 05:47:39;;;;;;;7.80;5.97;;;;;;;6.63;100.00;97865.78;5053907;28;20213;-78
2023/03/22 05:50:07;;;;;;;8.17;6.03;;;;;;;6.62;100.00;97866.75;5053407;28;20904;-77
2023/03/22 05:52:33;;;;;;;8.20;5.60;;;;;;;6.61;100.00;97867.69;5053616;28;20493;-77
2023/03/22 05:55:00;;;;;;;7.03;4.80;;;;;;;6.66;100.00;97862.97;5053558;28;20209;-77
2023/03/22 05:57:28;;;;;;;6.97;5.53;;;;;;;6.67;100.00;97869.94;5053333;28;20214;-76
2023/03/22 05:59:57;;;;;;;7.93;4.90;;;;;;;6.75;100.00;97870.34;5052855;28;20318;-76
2023/03/22 06:02:23;;;;;;;6.53;5.07;;;;;;;6.77;100.00;97868.47;5053498;28;20216;-76
2023/03/22 06:04:50;;;;;;;8.57;4.80;;;;;;;6.79;100.00;97871.84;5053540;28;20213;-76
2023/03/22 06:07:17;;;;;;;6.80;4.70;;;;;;;6.85;100.00;97871.47;5053505;28;20209;-76
2023/03/22 06:09:44;;;;;;;6.50;5.00;;;;;;;6.84;100.00;97875.03;5052855;28;20231;-76
2023/03/22 06:12:11;;;;;;;5.97;4.50;;;;;;;6.88;100.00;97876.56;5053044;28;20241;-76
2023/03/22 06:14:37;;;;;;;7.50;5.13;;;;;;;6.96;100.00;97869.06;5053146;28;20212;-77
2023/03/22 06:17:05;;;;;;;7.73;4.67;;;;;;;7.06;100.00;97882.50;5053330;28;20209;-77
2023/03/22 06:19:32;;;;;;;4.77;4.27;;;;;;;7.21;100.00;97879.81;5052845;28;20233;-77
2023/03/22 06:21:58;;;;;;;7.33;3.77;;;;;;;7.38;100.00;97879.66;5053177;28;20215;-76
2023/03/22 06:24:25;;;;;;;7.37;4.30;;;;;;;7.50;100.00;97882.41;5052866;28;20222;-76
2023/03/22 06:26:51;;;;;;;4.60;4.07;;;;;;;7.68;100.00;97876.00;5052696;28;20313;-76
2023/03/22 06:29:18;;;;;;;5.27;3.70;;;;;;;7.79;100.00;97880.59;5052648;28;20246;-76
2023/03/22 06:31:44;;;;;;;5.80;4.50;;;;;;;7.90;100.00;97886.88;5052836;28;20230;-76
2023/03/22 06:34:12;;;;;;;5.93;4.00;;;;;;;7.98;100.00;97894.31;5052771;28;20211;-76
2023/03/22 06:36:39;;;;;;;6.07;4.40;;;;;;;8.08;100.00;97882.25;5052437;28;20586;-76
2023/03/22 06:39:06;;;;;;;6.57;5.00;;;;;;;8.16;100.00;97882.63;5052097;28;20235;-77
2023/03/22 06:41:33;;;;;;;7.47;4.90;;;;;;;8.26;100.00;97894.28;5051702;28;20210;-77
2023/03/22 06:44:00;;;;;;;7.73;5.10;;;;;;;8.33;100.00;97895.59;5052616;28;20316;-78
2023/03/22 06:46:26;;;;;;;7.47;5.27;;;;;;;8.39;100.00;97895.19;5052702;28;20659;-76
2023/03/22 06:48:53;;;;;;;7.50;5.33;;;;;;;8.49;100.00;97902.41;5052435;28;20235;-76
2023/03/22 06:51:20;;;;;;;8.17;4.90;;;;;;;8.55;100.00;97890.63;5052228;28;20234;-76
2023/03/22 06:53:47;;;;;;;5.87;4.63;;;;;;;8.64;100.00;97895.31;5052379;28;20221;-76
2023/03/22 06:56:13;;;;;;;7.77;5.03;;;;;;;8.74;100.00;97893.72;5052281;28;20200;-76
2023/03/22 06:58:40;;;;;;;6.40;5.27;;;;;;;8.81;100.00;97897.69;5052327;28;20234;-76
2023/03/22 07:01:07;;;;;;;6.33;4.73;;;;;;;8.87;100.00;97886.75;5052119;28;20240;-76
2023/03/22 07:03:33;;;;;;;7.43;4.80;;;;;;;9.05;100.00;97890.78;5052147;28;20213;-75
2023/03/22 07:06:04;;;;;;;7.93;4.70;;;;;;;9.08;100.00;97882.66;5052333;28;20212;-76
2023/03/22 07:08:32;;;;;;;7.05;4.80;;;;;;;9.23;100.00;97889.56;5050526;28;20458;-75
2023/03/22 07:10:58;;;;;;;5.47;4.23;;;;;;;9.30;100.00;97893.47;5050268;28;20239;-76
2023/03/22 07:13:25;;;;;;;8.23;5.13;;;;;;;9.41;100.00;97889.13;5050645;28;21123;-76
2023/03/22 07:15:55;;;;;;;6.83;4.33;;;;;;;9.55;100.00;97885.56;5051329;28;20220;-76
2023/03/22 07:18:21;;;;;;;5.87;4.03;;;;;;;9.74;100.00;97884.16;5050717;28;20241;-75
2023/03/22 07:20:48;;;;;;;4.53;3.43;;;;;;;9.87;100.00;97882.38;5047188;28;20216;-75
2023/03/22 07:23:15;;;;;;;5.10;3.10;;;;;;;9.95;100.00;97873.88;5050899;28;20207;-76
2023/03/22 07:25:43;;;;;;;6.20;3.73;;;;;;;10.07;99.41;97873.91;5051191;28;20215;-76
2023/03/22 07:28:10;;;;;;;4.93;3.53;;;;;;;10.18;97.36;97875.78;5051152;28;20211;-77
2023/03/22 07:30:37;;;;;;;4.63;3.90;;;;;;;10.32;95.80;97865.06;5050286;28;20254;-76
2023/03/22 07:33:03;;;;;;;4.80;3.63;;;;;;;10.44;94.65;97858.88;5050943;28;20210;-76
2023/03/22 07:35:30;;;;;;;5.50;3.40;;;;;;;10.46;93.71;97860.47;5050775;28;20272;-75
2023/03/22 07:37:56;;;;;;;4.37;3.17;;;;;;;10.55;92.91;97864.22;5050479;28;20219;-75
2023/03/22 07:40:23;;;;;;;4.50;3.30;;;;;;;10.61;91.62;97863.78;5048763;28;20231;-75
2023/03/22 07:42:51;;;;;;;3.90;3.33;;;;;;;10.72;91.23;97855.91;5049970;28;20214;-76
2023/03/22 07:45:19;;;;;;;4.90;3.50;;;;;;;10.81;90.80;97863.16;5050936;28;20218;-75
2023/03/22 07:47:46;;;;;;;8.90;3.93;;;;;;;10.93;90.80;97859.59;5049166;28;20207;-75
2023/03/22 07:50:12;;;;;;;4.13;3.47;;;;;;;11.02;90.63;97856.28;5049090;28;20232;-78
2023/03/22 07:52:39;;;;;;;3.53;2.63;;;;;;;11.17;87.34;97857.75;5050391;28;20291;-74
2023/03/22 07:55:06;;;;;;;3.53;2.80;;;;;;;11.28;87.02;97852.47;5049093;28;20207;-77
2023/03/22 07:57:33;;;;;;;3.47;2.60;;;;;;;11.40;85.63;97852.41;5049509;28;20674;-76
2023/03/22 08:00:01;;;;;;;5.77;2.93;;;;;;;11.66;81.26;97842.47;5049323;28;20738;-75
2023/03/22 08:02:27;;;;;;;3.40;2.20;;;;;;;11.86;78.76;97837.28;5050150;28;20222;-77
2023/03/22 08:04:54;;;;;;;4.40;2.13;;;;;;;11.94;77.12;97831.41;5050050;28;20211;-75
2023/03/22 08:07:20;;;;;;;2.27;1.70;;;;;;;12.02;74.90;97827.19;5050639;28;20204;-76
2023/03/22 08:09:48;;;;;;;1.77;1.37;;;;;;;12.11;73.84;97833.56;5050250;28;20230;-75
2023/03/22 08:12:14;;;;;;;2.23;1.60;;;;;;;12.27;73.28;97826.03;5050017;28;20235;-76
2023/03/22 08:14:41;;;;;;;2.43;1.47;;;;;;;12.35;71.49;97829.75;5050499;28;20697;-75
2023/03/22 08:17:09;;;;;;;2.17;1.50;;;;;;;12.48;70.34;97821.66;5050282;28;20223;-75
2023/03/22 08:19:35;;;;;;;1.80;1.30;;;;;;;12.59;70.51;97827.75;5049228;28;20587;-76
2023/03/22 08:22:02;;;;;;;2.47;1.53;;;;;;;12.61;70.92;97832.94;5049167;28;20486;-79
2023/03/22 08:24:29;;;;;;;2.30;1.60;;;;;;;12.66;69.10;97818.31;5050682;28;20218;-78
2023/03/22 08:26:56;;;;;;;3.03;1.60;;;;;;;12.85;69.77;97822.97;5050853;28;20644;-78
2023/03/22 08:29:23;;;;;;;3.13;1.30;;;;;;;12.97;68.05;97821.97;5050534;28;20326;-79
2023/03/22 08:31:50;;;;;;;1.70;1.40;;;;;;;13.03;69.24;97816.16;5050935;28;20266;-79
2023/03/22 08:34:18;;;;;;;2.50;1.30;;;;;;;13.11;68.47;97814.56;5050928;28;20214;-80
2023/03/22 08:36:45;;;;;;;3.20;1.17;;;;;;;13.21;66.98;97804.00;5051205;28;20208;-80
2023/03/22 08:39:11;;;;;;;2.20;1.40;;;;;;;13.34;67.38;97808.13;5050683;28;20235;-81
2023/03/22 08:41:39;;;;;;;1.40;0.80;;;;;;;13.45;68.39;97815.19;5051111;28;20212;-79
2023/03/22 08:44:06;;;;;;;2.43;0.90;;;;;;;13.56;68.25;97815.94;5051081;28;20352;-79
2023/03/22 08:46:32;;;;;;;1.27;0.83;;;;;;;13.69;66.32;97799.78;5051036;28;20206;-79
2023/03/22 08:49:01;;;;;;;1.47;0.90;;;;;;;13.73;64.56;97796.72;5050309;28;20233;-79
2023/03/22 08:51:30;;;;;;;2.50;1.07;;;;;;;13.76;62.80;97790.31;5050706;28;20230;-79
2023/03/22 08:53:59;;;;;;;0.97;0.87;;;;;;;13.86;64.66;97804.44;5049720;28;20206;-80
2023/03/22 08:56:26;;;;;;;1.17;0.90;;;;;;;13.95;64.38;97804.50;5049517;28;20655;-79
2023/03/22 08:58:52;;;;;;;1.50;0.80;;;;;;;14.03;66.09;97809.13;5050966;28;20236;-79
2023/03/22 09:01:19;;;;;;;2.27;1.00;;;;;;;14.17;65.63;97806.13;5049684;28;20209;-78
2023/03/22 09:03:46;;;;;;;1.23;0.77;;;;;;;14.27;61.42;97775.09;5049555;28;20211;-81
2023/03/22 09:06:14;;;;;;;0.87;0.83;;;;;;;14.40;63.09;97797.78;5054186;28;20648;-80
2023/03/22 09:08:42;;;;;;;1.00;0.80;;;;;;;14.43;61.26;97775.41;5060049;28;20215;-80
2023/03/22 09:11:08;;;;;;;0.70;0.70;;;;;;;14.52;60.64;97774.56;5063739;28;20244;-79
2023/03/22 09:13:35;;;;;;;0.70;0.70;;;;;;;14.65;62.31;97788.44;5064044;28;20215;-77
2023/03/22 09:16:02;;;;;;;1.60;1.00;;;;;;;14.67;61.50;97779.34;5055329;28;20690;-79
2023/03/22 09:18:29;;;;;;;1.83;0.80;;;;;;;14.69;62.01;97785.38;5052711;28;20588;-81
2023/03/22 09:20:56;;;;;;;0.87;0.80;;;;;;;14.80;60.98;97771.09;5054272;28;20229;-78
2023/03/22 09:23:22;;;;;;;1.80;0.87;;;;;;;14.86;61.52;97779.31;5053497;28;20215;-78
2023/03/22 09:25:53;;;;;;;0.93;0.93;;;;;;;14.87;60.76;97780.19;5052256;28;20214;-80
2023/03/22 09:28:20;;;;;;;0.87;0.83;;;;;;;14.86;59.64;97763.38;5054249;28;20204;-78
2023/03/22 09:30:47;;;;;;;1.23;0.80;;;;;;;14.92;59.50;97761.97;5059249;28;20250;-80
2023/03/22 09:33:13;;;;;;;0.80;0.80;;;;;;;14.97;60.35;97765.06;5059850;28;20241;-79
2023/03/22 09:35:41;;;;;;;1.70;0.87;;;;;;;14.98;58.88;97756.09;5062181;28;20211;-78
2023/03/22 09:38:08;;;;;;;2.43;1.00;;;;;;;15.08;59.22;97757.75;5059549;28;20206;-79
2023/03/22 09:40:39;;;;;;;1.03;0.70;;;;;;;15.05;58.93;97758.03;5057818;28;20720;-78
2023/03/22 09:43:09;;;;;;;0.93;0.80;;;;;;;15.03;58.01;97749.34;5059078;28;20210;-78
2023/03/22 09:45:39;;;;;;;2.57;0.90;;;;;;;15.14;58.57;97754.50;5058598;28;20296;-82
2023/03/22 09:48:11;;;;;;;2.60;1.37;;;;;;;15.26;57.76;97744.53;5053743;28;20217;-78
2023/03/22 09:50:45;;;;;;;2.03;1.20;;;;;;;15.46;57.84;97743.53;5052300;28;20432;-77
2023/03/22 09:53:14;;;;;;;1.67;1.00;;;;;;;15.64;58.23;97745.28;5053623;28;20232;-78
2023/03/22 09:55:45;;;;;;;2.27;1.10;;;;;;;15.70;56.62;97727.88;5053693;28;20591;-76
2023/03/22 09:58:24;;;;;;;2.13;0.90;;;;;;;15.82;57.31;97734.69;5053751;28;20211;-77
2023/03/22 10:00:57;;;;;;;2.57;1.27;;;;;;;15.97;56.16;97722.53;5053290;28;20290;-76
2023/03/22 10:03:39;;;;;;;1.57;1.10;;;;;;;16.03;55.57;97704.97;5053594;28;20238;-77
2023/03/22 10:06:14;;;;;;;1.70;0.93;;;;;;;16.15;55.25;97705.59;5053825;28;20222;-77
2023/03/22 10:09:04;;;;;;;1.20;1.00;;;;;;;16.21;54.35;97691.66;5053539;28;20213;-74
2023/03/22 10:11:41;;;;;;;1.87;1.13;;;;;;;16.30;54.42;97691.59;5052875;28;20599;-75
2023/03/22 10:14:22;;;;;;;2.13;1.07;;;;;;;16.36;56.31;97717.66;5053419;28;20210;-74
2023/03/22 10:16:52;;;;;;;2.10;1.13;;;;;;;16.26;55.64;97705.34;5053489;28;20595;-75
2023/03/22 10:19:24;;;;;;;2.03;1.20;;;;;;;16.02;55.49;97698.94;5052809;28;20232;-76
2023/03/22 10:21:53;;;;;;;2.07;0.97;;;;;;;15.88;55.71;97694.13;5053213;28;20696;-76
2023/03/22 10:24:23;;;;;;;1.30;1.07;;;;;;;15.77;55.39;97697.81;5052902;28;20211;-76
2023/03/22 10:26:51;;;;;;;1.93;1.10;;;;;;;15.70;55.04;97691.41;5053334;28;20208;-76
2023/03/22 10:29:24;;;;;;;2.03;1.07;;;;;;;15.74;55.07;97682.13;5052575;28;20239;-75
2023/03/22 10:31:50;;;;;;;1.23;1.10;;;;;;;15.85;55.77;97689.09;5052914;28;20788;-76
2023/03/22 10:34:21;;;;;;;0.97;0.87;;;;;;;16.08;54.63;97686.69;5051656;28;20207;-75
2023/03/22 10:36:51;;;;;;;2.00;1.03;;;;;;;16.24;54.76;97676.19;5049645;28;20211;-78
2023/03/22 10:39:29;;;;;;;1.63;1.10;;;;;;;16.46;54.80;97683.75;5051610;28;20235;-75
2023/03/22 10:41:58;;;;;;;2.13;1.23;;;;;;;16.57;54.21;97678.19;5051518;28;20662;-78
2023/03/22 10:44:27;;;;;;;1.47;0.93;;;;;;;16.68;54.98;97680.63;5051315;28;20211;-77
2023/03/22 10:46:55;;;;;;;4.27;1.20;;;;;;;16.82;53.74;97668.56;5052753;28;20212;-81
2023/03/22 10:49:28;;;;;;;2.33;1.27;;;;;;;16.92;52.97;97662.13;5052099;28;20251;-79
2023/03/22 10:51:58;;;;;;;2.10;1.00;;;;;;;17.08;52.37;97656.88;5052544;28;20238;-79
2023/03/22 10:54:25;;;;;;;1.47;0.80;;;;;;;17.26;52.50;97663.00;5052745;28;20215;-80
2023/03/22 10:56:52;;;;;;;1.30;1.10;;;;;;;17.40;51.68;97653.59;5052586;28;20212;-79
2023/03/22 10:59:49;;;;;;;1.83;1.00;;;;;;;17.56;53.46;97667.84;5052051;28;20228;-77
2023/03/22 11:02:22;;;;;;;1.30;1.17;;;;;;;17.71;52.72;97654.72;5052692;28;20214;-79
2023/03/22 11:04:50;;;;;;;1.20;1.10;;;;;;;17.67;51.41;97648.88;5052183;28;20208;-80
2023/03/22 11:07:34;;;;;;;1.00;0.90;;;;;;;17.67;51.89;97642.69;5052255;28;20297;-78
2023/03/22 11:10:21;;;;;;;2.47;1.13;;;;;;;17.73;51.82;97648.22;5051311;28;20230;-79
2023/03/22 11:12:51;;;;;;;1.40;1.30;;;;;;;17.61;51.12;97636.16;5052183;28;20238;-75
2023/03/22 11:15:26;;;;;;;2.10;1.03;;;;;;;17.72;51.95;97641.19;5051833;28;20212;-79
2023/03/22 11:18:00;;;;;;;1.20;1.10;;;;;;;17.74;51.61;97639.19;5052097;28;20212;-75
2023/03/22 11:20:28;;;;;;;1.93;1.20;;;;;;;17.60;50.71;97625.59;5051530;28;20227;-76
2023/03/22 11:22:56;;;;;;;2.67;1.03;;;;;;;17.50;51.50;97631.09;5051725;28;20204;-75
2023/03/22 11:25:27;;;;;;;1.13;1.00;;;;;;;17.52;51.62;97637.13;5051888;28;20265;-76
2023/03/22 11:27:56;;;;;;;1.93;1.13;;;;;;;17.62;51.57;97631.66;5051424;28;20204;-78
2023/03/22 11:30:26;;;;;;;1.83;1.10;;;;;;;17.64;50.42;97616.28;5064555;22;20609;-82
2023/03/22 11:33:02;;;;;;;1.30;1.20;;;;;;;17.70;50.21;97611.13;5051219;28;20232;-80
2023/03/22 11:35:30;;;;;;;1.20;1.00;;;;;;;17.81;50.79;97618.00;5051671;28;20581;-80
2023/03/22 11:37:58;;;;;;;2.37;1.27;;;;;;;17.82;49.97;97611.66;5051632;28;20208;-84
2023/03/22 11:40:26;;;;;;;2.10;1.20;;;;;;;17.81;50.01;97610.81;5051291;28;20586;-83
2023/03/22 11:42:55;;;;;;;2.17;1.30;;;;;;;17.81;49.78;97610.81;5051420;28;20211;-87
2023/03/22 11:45:27;;;;;;;1.70;1.00;;;;;;;17.92;49.53;97599.81;5051330;28;20212;-84